createdAt,value
2019-03-03T00:00:46.300Z,0
2019-03-03T00:01:47.939Z,0
2019-03-03T00:02:49.506Z,0
2019-03-03T00:03:51.029Z,0
2019-03-03T00:04:52.670Z,0
2019-03-03T00:05:54.302Z,0
2019-03-03T00:06:55.854Z,0
2019-03-03T00:07:57.376Z,0
2019-03-03T00:08:58.942Z,0
2019-03-03T00:10:00.465Z,0
2019-03-03T00:11:01.934Z,0
2019-03-03T00:12:03.542Z,0
2019-03-03T00:13:05.500Z,0
2019-03-03T00:14:07.386Z,0
2019-03-03T00:15:09.289Z,0
2019-03-03T00:16:11.332Z,0
2019-03-03T00:17:13.250Z,0
2019-03-03T00:18:15.243Z,0
2019-03-03T00:19:17.192Z,0
2019-03-03T00:20:19.155Z,0
2019-03-03T00:21:21.064Z,0
2019-03-03T00:22:23.058Z,0
2019-03-03T00:23:25.034Z,0
2019-03-03T00:24:26.926Z,0
2019-03-03T00:25:28.856Z,0
2019-03-03T00:26:31.076Z,0
2019-03-03T00:27:32.607Z,0
2019-03-03T00:28:34.105Z,0
2019-03-03T00:29:35.675Z,0
2019-03-03T00:30:37.255Z,0
2019-03-03T00:31:38.852Z,0
2019-03-03T00:32:40.465Z,0
2019-03-03T00:33:42.035Z,0
2019-03-03T00:34:43.757Z,0
2019-03-03T00:35:45.262Z,0
2019-03-03T00:36:46.969Z,0
2019-03-03T00:37:48.591Z,0
2019-03-03T00:38:50.073Z,0
2019-03-03T00:39:51.729Z,0
2019-03-03T00:40:53.616Z,0
2019-03-03T00:41:55.426Z,0
2019-03-03T00:42:57.085Z,0
2019-03-03T00:43:58.717Z,0
2019-03-03T00:45:00.630Z,0
2019-03-03T00:46:02.564Z,0
2019-03-03T00:47:04.425Z,0
2019-03-03T00:48:06.142Z,0
2019-03-03T00:49:08.106Z,0
2019-03-03T00:50:09.940Z,0
2019-03-03T00:51:11.593Z,0
2019-03-03T00:52:14.223Z,0
2019-03-03T00:53:15.409Z,0
2019-03-03T00:54:17.399Z,0
2019-03-03T00:55:19.322Z,0
2019-03-03T00:56:21.276Z,0
2019-03-03T00:57:23.230Z,0
2019-03-03T00:58:25.055Z,0
2019-03-03T00:59:27.091Z,0
2019-03-03T01:00:29.024Z,0
2019-03-03T01:01:30.737Z,0
2019-03-03T01:02:32.474Z,0
2019-03-03T01:03:34.505Z,0
2019-03-03T01:04:36.490Z,0
2019-03-03T01:05:38.256Z,0
2019-03-03T01:06:40.094Z,0
2019-03-03T01:07:42.007Z,0
2019-03-03T01:08:43.880Z,0
2019-03-03T01:09:45.666Z,0
2019-03-03T01:10:47.556Z,0
2019-03-03T01:11:49.317Z,0
2019-03-03T01:12:51.249Z,0
2019-03-03T01:13:52.994Z,0
2019-03-03T01:14:54.795Z,0
2019-03-03T01:15:56.674Z,0
2019-03-03T01:16:58.573Z,0
2019-03-03T01:18:39.431Z,0
2019-03-03T01:19:40.787Z,0
2019-03-03T01:20:42.155Z,0
2019-03-03T01:21:43.533Z,0
2019-03-03T01:22:44.881Z,0
2019-03-03T01:23:46.236Z,0
2019-03-03T01:24:47.612Z,0
2019-03-03T01:25:48.969Z,0
2019-03-03T01:26:50.330Z,0
2019-03-03T01:27:51.696Z,0
2019-03-03T01:28:53.076Z,0
2019-03-03T01:29:54.426Z,0
2019-03-03T01:30:55.775Z,0
2019-03-03T01:31:57.160Z,0
2019-03-03T01:32:58.518Z,0
2019-03-03T01:33:59.873Z,0
2019-03-03T01:35:01.230Z,0
2019-03-03T01:36:02.617Z,0
2019-03-03T01:37:03.984Z,0
2019-03-03T01:38:05.362Z,0
2019-03-03T01:39:06.735Z,0
2019-03-03T01:40:08.130Z,0
2019-03-03T01:41:09.493Z,0
2019-03-03T01:42:10.845Z,0
2019-03-03T01:43:12.242Z,0
2019-03-03T01:44:13.575Z,0
2019-03-03T01:45:14.929Z,0
2019-03-03T01:46:16.310Z,0
2019-03-03T01:47:17.666Z,0
2019-03-03T01:48:19.015Z,0
2019-03-03T01:49:20.371Z,0
2019-03-03T01:50:21.723Z,0
2019-03-03T01:51:23.091Z,0
2019-03-03T01:52:24.437Z,0
2019-03-03T01:53:25.792Z,0
2019-03-03T01:54:27.153Z,0
2019-03-03T01:55:28.491Z,0
2019-03-03T01:56:29.852Z,0
2019-03-03T01:57:31.225Z,0
2019-03-03T01:58:32.556Z,0
2019-03-03T01:59:33.908Z,0
2019-03-03T02:00:35.260Z,0
2019-03-03T02:01:36.617Z,0
2019-03-03T02:02:37.972Z,0
2019-03-03T02:03:39.325Z,0
2019-03-03T02:04:40.667Z,0
2019-03-03T02:05:42.036Z,0
2019-03-03T02:06:43.387Z,0
2019-03-03T02:07:44.743Z,0
2019-03-03T02:08:46.092Z,0
2019-03-03T02:09:47.452Z,0
2019-03-03T02:10:48.798Z,0
2019-03-03T02:11:50.148Z,0
2019-03-03T02:12:51.493Z,0
2019-03-03T02:13:52.847Z,0
2019-03-03T02:14:54.209Z,0
2019-03-03T02:15:55.557Z,0
2019-03-03T02:16:56.910Z,0
2019-03-03T02:17:58.267Z,0
2019-03-03T02:18:59.630Z,0
2019-03-03T02:20:00.978Z,0
2019-03-03T02:21:02.332Z,0
2019-03-03T02:22:03.692Z,0
2019-03-03T02:23:05.045Z,0
2019-03-03T02:24:06.390Z,0
2019-03-03T02:25:07.740Z,0
2019-03-03T02:26:09.089Z,0
2019-03-03T02:27:10.431Z,0
2019-03-03T02:28:12.201Z,0
2019-03-03T02:29:13.563Z,0
2019-03-03T02:30:14.912Z,0
2019-03-03T02:31:16.273Z,0
2019-03-03T02:32:17.623Z,0
2019-03-03T02:33:18.979Z,0
2019-03-03T02:34:20.326Z,0
2019-03-03T02:35:21.676Z,0
2019-03-03T02:36:23.045Z,0
2019-03-03T02:37:24.376Z,0
2019-03-03T02:38:25.727Z,0
2019-03-03T02:39:27.090Z,0
2019-03-03T02:40:28.427Z,0
2019-03-03T02:41:29.789Z,0
2019-03-03T02:42:31.135Z,0
2019-03-03T02:43:32.496Z,0
2019-03-03T02:44:33.858Z,0
2019-03-03T02:45:35.209Z,0
2019-03-03T02:46:36.562Z,0
2019-03-03T02:47:37.927Z,0
2019-03-03T02:48:39.268Z,0
2019-03-03T02:49:40.622Z,0
2019-03-03T02:50:41.969Z,0
2019-03-03T02:51:43.322Z,0
2019-03-03T02:52:44.665Z,0
2019-03-03T02:53:46.030Z,0
2019-03-03T02:54:47.384Z,0
2019-03-03T02:55:48.732Z,0
2019-03-03T02:56:50.094Z,0
2019-03-03T02:57:51.438Z,0
2019-03-03T02:58:52.805Z,0
2019-03-03T02:59:54.195Z,0
2019-03-03T03:00:55.488Z,0
2019-03-03T03:01:56.841Z,0
2019-03-03T03:02:58.212Z,0
2019-03-03T03:03:59.559Z,0
2019-03-03T03:05:01.006Z,0
2019-03-03T03:06:02.239Z,0
2019-03-03T03:07:03.597Z,0
2019-03-03T03:08:04.947Z,0
2019-03-03T03:09:06.294Z,0
2019-03-03T03:10:07.652Z,0
2019-03-03T03:11:09.007Z,0
2019-03-03T03:12:10.361Z,0
2019-03-03T03:13:11.712Z,0
2019-03-03T03:14:13.072Z,0
2019-03-03T03:15:14.428Z,0
2019-03-03T03:16:15.795Z,0
2019-03-03T03:17:17.144Z,0
2019-03-03T03:18:18.498Z,0
2019-03-03T03:19:19.855Z,0
2019-03-03T03:20:21.209Z,0
2019-03-03T03:21:22.552Z,0
2019-03-03T03:22:23.905Z,0
2019-03-03T03:23:25.259Z,0
2019-03-03T03:24:26.607Z,0
2019-03-03T03:25:27.964Z,0
2019-03-03T03:26:29.327Z,0
2019-03-03T03:27:30.682Z,0
2019-03-03T03:28:32.025Z,0
2019-03-03T03:29:33.378Z,0
2019-03-03T03:30:34.741Z,0
2019-03-03T03:31:36.080Z,0
2019-03-03T03:32:37.456Z,0
2019-03-03T03:33:38.813Z,0
2019-03-03T03:34:40.159Z,0
2019-03-03T03:35:41.507Z,0
2019-03-03T03:36:42.878Z,0
2019-03-03T03:37:44.232Z,0
2019-03-03T03:38:45.593Z,0
2019-03-03T03:39:46.938Z,0
2019-03-03T03:40:48.298Z,0
2019-03-03T03:41:49.641Z,0
2019-03-03T03:42:51.003Z,0
2019-03-03T03:43:52.359Z,0
2019-03-03T03:44:53.710Z,0
2019-03-03T03:45:55.058Z,0
2019-03-03T03:46:56.415Z,0
2019-03-03T03:47:57.764Z,0
2019-03-03T03:48:59.114Z,0
2019-03-03T03:50:00.499Z,0
2019-03-03T03:51:01.823Z,0
2019-03-03T03:52:03.198Z,0
2019-03-03T03:53:04.535Z,0
2019-03-03T03:54:05.889Z,0
2019-03-03T03:55:07.245Z,0
2019-03-03T03:56:08.633Z,0
2019-03-03T03:57:09.982Z,0
2019-03-03T03:58:11.329Z,0
2019-03-03T03:59:12.690Z,0
2019-03-03T04:00:14.094Z,0
2019-03-03T04:01:15.398Z,0
2019-03-03T04:02:16.836Z,0
2019-03-03T04:03:18.195Z,0
2019-03-03T04:04:19.543Z,0
2019-03-03T04:05:20.892Z,0
2019-03-03T04:06:22.243Z,0
2019-03-03T04:07:23.598Z,0
2019-03-03T04:08:24.954Z,0
2019-03-03T04:09:26.304Z,0
2019-03-03T04:10:27.669Z,0
2019-03-03T04:11:29.009Z,0
2019-03-03T04:12:30.360Z,0
2019-03-03T04:13:31.712Z,0
2019-03-03T04:14:33.065Z,0
2019-03-03T04:15:34.424Z,0
2019-03-03T04:16:35.768Z,0
2019-03-03T04:17:37.139Z,0
2019-03-03T04:18:38.484Z,0
2019-03-03T04:19:39.849Z,0
2019-03-03T04:20:41.192Z,0
2019-03-03T04:21:42.546Z,0
2019-03-03T04:22:43.898Z,0
2019-03-03T04:23:45.244Z,0
2019-03-03T04:24:46.604Z,0
2019-03-03T04:25:47.958Z,0
2019-03-03T04:26:49.309Z,0
2019-03-03T04:27:50.662Z,0
2019-03-03T04:28:52.013Z,0
2019-03-03T04:29:53.366Z,0
2019-03-03T04:30:54.723Z,0
2019-03-03T04:31:56.076Z,0
2019-03-03T04:32:57.422Z,0
2019-03-03T04:33:58.783Z,0
2019-03-03T04:35:00.321Z,0
2019-03-03T04:36:01.439Z,0
2019-03-03T04:37:02.799Z,0
2019-03-03T04:38:04.154Z,0
2019-03-03T04:39:05.493Z,0
2019-03-03T04:40:06.848Z,0
2019-03-03T04:41:08.200Z,0
2019-03-03T04:42:09.551Z,0
2019-03-03T04:43:10.909Z,0
2019-03-03T04:44:12.260Z,0
2019-03-03T04:45:13.614Z,0
2019-03-03T04:46:14.959Z,0
2019-03-03T04:47:16.309Z,0
2019-03-03T04:48:17.673Z,0
2019-03-03T04:49:19.024Z,0
2019-03-03T04:50:20.378Z,0
2019-03-03T04:51:21.727Z,0
2019-03-03T04:52:23.085Z,0
2019-03-03T04:53:24.434Z,0
2019-03-03T04:54:25.779Z,0
2019-03-03T04:55:27.124Z,0
2019-03-03T04:56:28.488Z,0
2019-03-03T04:57:29.844Z,0
2019-03-03T04:58:31.190Z,0
2019-03-03T04:59:32.544Z,0
2019-03-03T05:00:33.899Z,0
2019-03-03T05:01:35.252Z,0
2019-03-03T05:02:36.602Z,0
2019-03-03T05:03:37.954Z,0
2019-03-03T05:04:39.303Z,0
2019-03-03T05:05:40.649Z,0
2019-03-03T05:06:42.012Z,0
2019-03-03T05:07:43.364Z,0
2019-03-03T05:08:44.713Z,0
2019-03-03T05:09:46.058Z,0
2019-03-03T05:10:47.419Z,0
2019-03-03T05:11:48.763Z,0
2019-03-03T05:12:50.117Z,0
2019-03-03T05:13:51.476Z,0
2019-03-03T05:14:52.825Z,0
2019-03-03T05:15:54.199Z,0
2019-03-03T05:16:55.546Z,0
2019-03-03T05:17:56.910Z,0
2019-03-03T05:18:58.261Z,0
2019-03-03T05:19:59.607Z,0
2019-03-03T05:21:00.959Z,0
2019-03-03T05:22:02.315Z,0
2019-03-03T05:23:03.675Z,0
2019-03-03T05:24:05.029Z,0
2019-03-03T05:25:06.399Z,0
2019-03-03T05:26:07.734Z,0
2019-03-03T05:27:09.082Z,0
2019-03-03T05:28:10.443Z,0
2019-03-03T05:29:11.785Z,0
2019-03-03T05:30:13.140Z,0
2019-03-03T05:31:14.492Z,0
2019-03-03T05:32:15.849Z,0
2019-03-03T05:33:17.209Z,0
2019-03-03T05:34:18.613Z,0
2019-03-03T05:35:19.964Z,0
2019-03-03T05:36:21.319Z,0
2019-03-03T05:37:22.673Z,0
2019-03-03T05:38:24.018Z,0
2019-03-03T05:39:25.382Z,0
2019-03-03T05:40:26.730Z,0
2019-03-03T05:41:28.083Z,0
2019-03-03T05:42:29.430Z,0
2019-03-03T05:43:30.788Z,0
2019-03-03T05:44:32.133Z,0
2019-03-03T05:45:33.495Z,0
2019-03-03T05:46:34.850Z,0
2019-03-03T05:47:36.200Z,0
2019-03-03T05:48:37.553Z,0
2019-03-03T05:49:38.939Z,0
2019-03-03T05:50:40.284Z,0
2019-03-03T05:51:41.640Z,0
2019-03-03T05:52:43.000Z,0
2019-03-03T05:53:44.350Z,0
2019-03-03T05:54:45.709Z,0
2019-03-03T05:55:47.065Z,0
2019-03-03T05:56:48.420Z,0
2019-03-03T05:57:49.778Z,0
2019-03-03T05:58:51.125Z,0
2019-03-03T05:59:52.489Z,0
2019-03-03T06:00:53.841Z,0
2019-03-03T06:01:55.195Z,0
2019-03-03T06:02:56.544Z,0
2019-03-03T06:03:57.915Z,0
2019-03-03T06:04:59.265Z,0
2019-03-03T06:06:00.614Z,0
2019-03-03T06:07:01.969Z,0
2019-03-03T06:08:03.323Z,0
2019-03-03T06:09:04.680Z,0
2019-03-03T06:10:06.028Z,0
2019-03-03T06:11:07.380Z,0
2019-03-03T06:12:08.765Z,0
2019-03-03T06:13:10.122Z,0
2019-03-03T06:14:11.455Z,0
2019-03-03T06:15:12.868Z,5
2019-03-03T06:16:14.165Z,5
2019-03-03T06:17:15.523Z,5
2019-03-03T06:18:16.870Z,5
2019-03-03T06:19:18.228Z,5
2019-03-03T06:20:19.583Z,5
2019-03-03T06:21:20.932Z,5
2019-03-03T06:22:22.285Z,5
2019-03-03T06:23:23.635Z,5
2019-03-03T06:24:25.044Z,5
2019-03-03T06:25:26.368Z,11
2019-03-03T06:26:27.700Z,11
2019-03-03T06:27:29.091Z,11
2019-03-03T06:28:30.450Z,16
2019-03-03T06:29:31.804Z,28
2019-03-03T06:30:33.207Z,39
2019-03-03T06:31:34.518Z,39
2019-03-03T06:32:35.865Z,45
2019-03-03T06:33:37.234Z,39
2019-03-03T06:34:38.589Z,33
2019-03-03T06:35:40.405Z,33
2019-03-03T06:36:41.751Z,33
2019-03-03T06:37:43.117Z,39
2019-03-03T06:38:44.476Z,45
2019-03-03T06:39:45.827Z,39
2019-03-03T06:40:47.195Z,45
2019-03-03T06:41:48.551Z,45
2019-03-03T06:42:49.910Z,50
2019-03-03T06:43:51.274Z,56
2019-03-03T06:44:52.621Z,61
2019-03-03T06:45:54.094Z,61
2019-03-03T06:46:55.448Z,61
2019-03-03T06:47:56.805Z,67
2019-03-03T06:48:58.155Z,73
2019-03-03T06:49:59.516Z,73
2019-03-03T06:51:00.876Z,73
2019-03-03T06:52:02.231Z,78
2019-03-03T06:53:03.590Z,84
2019-03-03T06:54:04.951Z,84
2019-03-03T06:55:06.301Z,84
2019-03-03T06:56:07.670Z,78
2019-03-03T06:57:09.026Z,73
2019-03-03T06:58:10.391Z,73
2019-03-03T06:59:11.756Z,73
2019-03-03T07:00:13.113Z,67
2019-03-03T07:01:14.467Z,73
2019-03-03T07:02:15.819Z,78
2019-03-03T07:03:17.189Z,73
2019-03-03T07:04:18.543Z,61
2019-03-03T07:05:19.909Z,56
2019-03-03T07:06:21.255Z,50
2019-03-03T07:07:22.616Z,45
2019-03-03T07:08:23.972Z,45
2019-03-03T07:09:25.338Z,45
2019-03-03T07:10:26.694Z,45
2019-03-03T07:11:28.059Z,50
2019-03-03T07:12:29.415Z,50
2019-03-03T07:13:30.759Z,50
2019-03-03T07:14:32.129Z,56
2019-03-03T07:15:33.600Z,73
2019-03-03T07:16:34.965Z,90
2019-03-03T07:17:36.320Z,101
2019-03-03T07:19:17.192Z,106
2019-03-03T07:20:18.549Z,106
2019-03-03T07:21:19.910Z,112
2019-03-03T07:22:21.266Z,112
2019-03-03T07:23:22.620Z,129
2019-03-03T07:24:23.978Z,140
2019-03-03T07:25:25.346Z,129
2019-03-03T07:26:26.700Z,118
2019-03-03T07:27:28.055Z,118
2019-03-03T07:28:29.411Z,123
2019-03-03T07:29:30.775Z,118
2019-03-03T07:30:32.128Z,118
2019-03-03T07:31:33.491Z,123
2019-03-03T07:32:34.847Z,157
2019-03-03T07:33:36.218Z,185
2019-03-03T07:34:37.575Z,202
2019-03-03T07:35:38.925Z,196
2019-03-03T07:36:40.287Z,202
2019-03-03T07:37:41.644Z,196
2019-03-03T07:38:43.005Z,196
2019-03-03T07:39:44.370Z,202
2019-03-03T07:40:45.751Z,208
2019-03-03T07:41:47.101Z,213
2019-03-03T07:42:48.466Z,202
2019-03-03T07:43:49.826Z,196
2019-03-03T07:44:51.196Z,196
2019-03-03T07:45:52.554Z,208
2019-03-03T07:46:53.916Z,236
2019-03-03T07:47:55.280Z,253
2019-03-03T07:48:56.644Z,258
2019-03-03T07:49:57.999Z,258
2019-03-03T07:50:59.356Z,264
2019-03-03T07:52:00.717Z,258
2019-03-03T07:53:02.085Z,247
2019-03-03T07:54:03.444Z,241
2019-03-03T07:55:04.805Z,241
2019-03-03T07:56:06.166Z,247
2019-03-03T07:57:07.539Z,230
2019-03-03T07:58:08.885Z,230
2019-03-03T07:59:10.247Z,241
2019-03-03T08:00:11.612Z,241
2019-03-03T08:01:12.969Z,225
2019-03-03T08:02:14.335Z,219
2019-03-03T08:03:15.690Z,213
2019-03-03T08:04:17.047Z,213
2019-03-03T08:05:18.420Z,202
2019-03-03T08:06:19.775Z,185
2019-03-03T08:07:21.143Z,180
2019-03-03T08:08:22.501Z,185
2019-03-03T08:09:23.867Z,185
2019-03-03T08:10:25.221Z,191
2019-03-03T08:11:26.577Z,202
2019-03-03T08:12:27.927Z,213
2019-03-03T08:13:29.295Z,230
2019-03-03T08:14:30.652Z,236
2019-03-03T08:15:32.013Z,241
2019-03-03T08:16:33.371Z,230
2019-03-03T08:17:34.730Z,241
2019-03-03T08:18:36.092Z,230
2019-03-03T08:19:37.456Z,225
2019-03-03T08:20:38.815Z,219
2019-03-03T08:21:40.181Z,219
2019-03-03T08:22:41.542Z,219
2019-03-03T08:23:42.906Z,230
2019-03-03T08:24:44.265Z,253
2019-03-03T08:25:45.625Z,286
2019-03-03T08:26:46.984Z,309
2019-03-03T08:27:48.336Z,326
2019-03-03T08:28:49.699Z,337
2019-03-03T08:29:51.077Z,343
2019-03-03T08:30:52.432Z,354
2019-03-03T08:31:53.791Z,348
2019-03-03T08:32:55.152Z,365
2019-03-03T08:33:56.506Z,343
2019-03-03T08:34:57.858Z,298
2019-03-03T08:35:59.225Z,264
2019-03-03T08:37:00.587Z,258
2019-03-03T08:38:01.952Z,247
2019-03-03T08:39:03.310Z,241
2019-03-03T08:40:04.660Z,230
2019-03-03T08:41:06.027Z,202
2019-03-03T08:42:07.383Z,180
2019-03-03T08:43:08.751Z,146
2019-03-03T08:44:10.122Z,129
2019-03-03T08:45:11.480Z,129
2019-03-03T08:46:12.840Z,129
2019-03-03T08:47:14.196Z,118
2019-03-03T08:48:15.558Z,123
2019-03-03T08:49:16.921Z,129
2019-03-03T08:50:18.280Z,129
2019-03-03T08:51:19.651Z,129
2019-03-03T08:52:21.006Z,123
2019-03-03T08:53:22.367Z,106
2019-03-03T08:54:23.728Z,95
2019-03-03T08:55:25.101Z,95
2019-03-03T08:56:26.454Z,84
2019-03-03T08:57:27.821Z,84
2019-03-03T08:58:29.180Z,78
2019-03-03T08:59:30.558Z,90
2019-03-03T09:00:31.911Z,101
2019-03-03T09:01:33.270Z,101
2019-03-03T09:02:34.632Z,106
2019-03-03T09:03:35.976Z,135
2019-03-03T09:04:37.340Z,112
2019-03-03T09:05:40.274Z,101
2019-03-03T09:06:40.022Z,95
2019-03-03T09:07:41.376Z,95
2019-03-03T09:08:42.740Z,101
2019-03-03T09:09:44.093Z,106
2019-03-03T09:10:45.455Z,95
2019-03-03T09:11:46.822Z,84
2019-03-03T09:12:48.181Z,84
2019-03-03T09:13:49.540Z,78
2019-03-03T09:14:50.904Z,84
2019-03-03T09:15:52.256Z,101
2019-03-03T09:16:53.640Z,106
2019-03-03T09:17:54.996Z,95
2019-03-03T09:18:56.400Z,84
2019-03-03T09:19:57.756Z,84
2019-03-03T09:20:59.118Z,95
2019-03-03T09:22:00.478Z,101
2019-03-03T09:23:01.841Z,101
2019-03-03T09:24:03.202Z,118
2019-03-03T09:25:04.562Z,140
2019-03-03T09:26:06.383Z,123
2019-03-03T09:27:07.741Z,129
2019-03-03T09:28:09.107Z,135
2019-03-03T09:29:10.467Z,135
2019-03-03T09:30:11.831Z,140
2019-03-03T09:31:13.197Z,140
2019-03-03T09:32:14.555Z,140
2019-03-03T09:33:15.924Z,157
2019-03-03T09:34:17.293Z,191
2019-03-03T09:35:18.649Z,230
2019-03-03T09:36:20.007Z,241
2019-03-03T09:37:21.363Z,202
2019-03-03T09:38:22.721Z,225
2019-03-03T09:39:24.093Z,241
2019-03-03T09:40:25.449Z,213
2019-03-03T09:41:26.821Z,191
2019-03-03T09:42:28.196Z,219
2019-03-03T09:43:29.552Z,258
2019-03-03T09:44:30.919Z,247
2019-03-03T09:45:32.278Z,230
2019-03-03T09:46:33.652Z,196
2019-03-03T09:47:34.997Z,191
2019-03-03T09:48:36.359Z,213
2019-03-03T09:49:37.723Z,191
2019-03-03T09:50:39.103Z,151
2019-03-03T09:51:40.457Z,151
2019-03-03T09:52:41.814Z,168
2019-03-03T09:53:43.174Z,202
2019-03-03T09:54:44.543Z,219
2019-03-03T09:55:45.888Z,230
2019-03-03T09:56:47.258Z,196
2019-03-03T09:57:48.621Z,185
2019-03-03T09:58:49.977Z,168
2019-03-03T09:59:51.347Z,202
2019-03-03T10:00:52.721Z,185
2019-03-03T10:01:54.077Z,157
2019-03-03T10:02:55.448Z,163
2019-03-03T10:03:56.808Z,191
2019-03-03T10:04:58.164Z,208
2019-03-03T10:05:59.518Z,202
2019-03-03T10:07:00.876Z,180
2019-03-03T10:08:02.247Z,185
2019-03-03T10:09:03.599Z,191
2019-03-03T10:10:04.962Z,174
2019-03-03T10:11:06.321Z,185
2019-03-03T10:12:07.691Z,196
2019-03-03T10:13:09.052Z,213
2019-03-03T10:14:10.413Z,225
2019-03-03T10:15:11.774Z,241
2019-03-03T10:16:13.138Z,258
2019-03-03T10:17:14.554Z,202
2019-03-03T10:18:15.862Z,230
2019-03-03T10:19:17.227Z,236
2019-03-03T10:20:18.601Z,196
2019-03-03T10:21:19.957Z,202
2019-03-03T10:22:21.323Z,225
2019-03-03T10:23:22.682Z,191
2019-03-03T10:24:24.049Z,168
2019-03-03T10:25:25.403Z,157
2019-03-03T10:26:26.778Z,174
2019-03-03T10:27:28.136Z,168
2019-03-03T10:28:29.498Z,168
2019-03-03T10:29:30.857Z,174
2019-03-03T10:30:32.233Z,208
2019-03-03T10:31:33.602Z,247
2019-03-03T10:32:34.964Z,241
2019-03-03T10:33:36.324Z,225
2019-03-03T10:34:37.687Z,247
2019-03-03T10:35:39.043Z,230
2019-03-03T10:36:40.422Z,202
2019-03-03T10:37:41.773Z,208
2019-03-03T10:38:43.143Z,225
2019-03-03T10:39:44.509Z,230
2019-03-03T10:40:45.857Z,247
2019-03-03T10:41:47.227Z,258
2019-03-03T10:42:48.579Z,253
2019-03-03T10:43:49.932Z,236
2019-03-03T10:44:51.299Z,219
2019-03-03T10:45:52.678Z,202
2019-03-03T10:46:54.032Z,202
2019-03-03T10:47:55.395Z,225
2019-03-03T10:48:56.763Z,241
2019-03-03T10:49:58.134Z,247
2019-03-03T10:50:59.500Z,253
2019-03-03T10:52:00.858Z,236
2019-03-03T10:53:02.232Z,247
2019-03-03T10:54:03.608Z,270
2019-03-03T10:55:04.963Z,270
2019-03-03T10:56:06.315Z,286
2019-03-03T10:57:07.687Z,264
2019-03-03T10:58:09.048Z,241
2019-03-03T10:59:10.408Z,236
2019-03-03T11:00:11.796Z,230
2019-03-03T11:01:13.144Z,236
2019-03-03T11:02:14.511Z,230
2019-03-03T11:03:15.874Z,213
2019-03-03T11:04:17.257Z,219
2019-03-03T11:05:18.608Z,196
2019-03-03T11:06:19.985Z,180
2019-03-03T11:07:21.342Z,163
2019-03-03T11:08:22.719Z,151
2019-03-03T11:09:24.075Z,168
2019-03-03T11:10:25.442Z,163
2019-03-03T11:11:26.803Z,163
2019-03-03T11:12:28.181Z,168
2019-03-03T11:13:29.545Z,163
2019-03-03T11:14:30.909Z,163
2019-03-03T11:15:32.275Z,168
2019-03-03T11:16:33.633Z,157
2019-03-03T11:17:34.998Z,157
2019-03-03T11:18:36.362Z,168
2019-03-03T11:19:37.723Z,185
2019-03-03T11:20:39.090Z,180
2019-03-03T11:21:40.449Z,191
2019-03-03T11:22:41.814Z,196
2019-03-03T11:23:44.794Z,196
2019-03-03T11:24:46.174Z,196
2019-03-03T11:25:47.529Z,185
2019-03-03T11:26:48.894Z,185
2019-03-03T11:27:50.259Z,202
2019-03-03T11:28:51.632Z,230
2019-03-03T11:29:52.998Z,247
2019-03-03T11:30:54.358Z,208
2019-03-03T11:31:55.722Z,219
2019-03-03T11:32:57.084Z,208
2019-03-03T11:33:58.440Z,174
2019-03-03T11:34:59.805Z,157
2019-03-03T11:36:01.169Z,174
2019-03-03T11:37:02.539Z,202
2019-03-03T11:38:03.904Z,191
2019-03-03T11:39:05.279Z,180
2019-03-03T11:40:06.618Z,174
2019-03-03T11:41:07.990Z,191
2019-03-03T11:42:09.355Z,202
2019-03-03T11:43:10.733Z,202
2019-03-03T11:44:12.094Z,196
2019-03-03T11:45:13.453Z,202
2019-03-03T11:46:14.828Z,213
2019-03-03T11:47:16.188Z,213
2019-03-03T11:48:19.699Z,219
2019-03-03T11:49:18.873Z,292
2019-03-03T11:50:20.242Z,309
2019-03-03T11:51:21.602Z,348
2019-03-03T11:52:22.989Z,360
2019-03-03T11:53:24.359Z,326
2019-03-03T11:54:25.719Z,360
2019-03-03T11:55:27.090Z,298
2019-03-03T11:56:28.458Z,236
2019-03-03T11:57:29.824Z,185
2019-03-03T11:58:31.223Z,168
2019-03-03T11:59:32.585Z,236
2019-03-03T12:00:33.940Z,315
2019-03-03T12:01:35.305Z,360
2019-03-03T12:02:36.684Z,405
2019-03-03T12:03:38.053Z,438
2019-03-03T12:04:39.908Z,450
2019-03-03T12:05:41.271Z,466
2019-03-03T12:06:42.653Z,438
2019-03-03T12:07:44.536Z,376
2019-03-03T12:08:45.346Z,382
2019-03-03T12:09:46.715Z,461
2019-03-03T12:10:48.091Z,472
2019-03-03T12:11:49.549Z,466
2019-03-03T12:12:50.970Z,421
2019-03-03T12:13:52.335Z,393
2019-03-03T12:14:53.695Z,343
2019-03-03T12:15:55.054Z,281
2019-03-03T12:16:56.429Z,225
2019-03-03T12:17:57.794Z,236
2019-03-03T12:18:59.190Z,264
2019-03-03T12:20:00.558Z,410
2019-03-03T12:21:01.920Z,466
2019-03-03T12:22:03.280Z,483
2019-03-03T12:23:04.638Z,500
2019-03-03T12:24:06.010Z,528
2019-03-03T12:25:07.371Z,523
2019-03-03T12:26:08.740Z,483
2019-03-03T12:27:10.114Z,427
2019-03-03T12:28:11.471Z,388
2019-03-03T12:29:12.849Z,354
2019-03-03T12:30:14.209Z,354
2019-03-03T12:31:15.574Z,343
2019-03-03T12:32:17.021Z,337
2019-03-03T12:33:18.385Z,320
2019-03-03T12:34:19.759Z,264
2019-03-03T12:35:21.305Z,219
2019-03-03T12:36:27.150Z,236
2019-03-03T12:37:28.500Z,230
2019-03-03T12:38:29.871Z,219
2019-03-03T12:39:31.241Z,208
2019-03-03T12:40:32.605Z,180
2019-03-03T12:41:33.972Z,185
2019-03-03T12:42:35.335Z,202
2019-03-03T12:43:36.728Z,196
2019-03-03T12:44:38.090Z,191
2019-03-03T12:45:39.491Z,168
2019-03-03T12:46:40.856Z,163
2019-03-03T12:47:42.221Z,151
2019-03-03T12:48:43.589Z,151
2019-03-03T12:49:44.949Z,151
2019-03-03T12:50:46.311Z,151
2019-03-03T12:51:47.704Z,157
2019-03-03T12:52:49.056Z,180
2019-03-03T12:53:50.414Z,180
2019-03-03T12:54:51.791Z,185
2019-03-03T12:55:53.152Z,157
2019-03-03T12:56:54.512Z,157
2019-03-03T12:57:55.874Z,157
2019-03-03T12:58:57.235Z,151
2019-03-03T12:59:58.595Z,163
2019-03-03T13:00:59.954Z,168
2019-03-03T13:02:01.330Z,157
2019-03-03T13:03:02.696Z,185
2019-03-03T13:04:04.057Z,174
2019-03-03T13:05:05.415Z,174
2019-03-03T13:06:06.767Z,168
2019-03-03T13:07:08.129Z,174
2019-03-03T13:08:09.485Z,180
2019-03-03T13:09:10.851Z,174
2019-03-03T13:10:12.214Z,151
2019-03-03T13:11:13.589Z,140
2019-03-03T13:12:14.956Z,140
2019-03-03T13:13:16.321Z,135
2019-03-03T13:14:17.686Z,135
2019-03-03T13:15:19.051Z,146
2019-03-03T13:16:20.435Z,140
2019-03-03T13:17:21.794Z,129
2019-03-03T13:18:23.146Z,146
2019-03-03T13:19:24.515Z,168
2019-03-03T13:20:25.881Z,157
2019-03-03T13:21:27.244Z,151
2019-03-03T13:22:28.603Z,135
2019-03-03T13:23:29.964Z,135
2019-03-03T13:24:31.363Z,129
2019-03-03T13:25:32.690Z,129
2019-03-03T13:26:34.051Z,129
2019-03-03T13:27:35.414Z,123
2019-03-03T13:28:36.777Z,123
2019-03-03T13:29:38.144Z,123
2019-03-03T13:30:39.515Z,123
2019-03-03T13:31:40.885Z,118
2019-03-03T13:32:42.241Z,112
2019-03-03T13:33:43.602Z,112
2019-03-03T13:34:44.972Z,123
2019-03-03T13:35:46.325Z,123
2019-03-03T13:36:47.699Z,123
2019-03-03T13:37:49.051Z,129
2019-03-03T13:38:50.420Z,140
2019-03-03T13:39:51.771Z,157
2019-03-03T13:40:53.136Z,163
2019-03-03T13:41:54.502Z,168
2019-03-03T13:42:55.874Z,168
2019-03-03T13:43:57.236Z,168
2019-03-03T13:44:58.601Z,174
2019-03-03T13:45:59.961Z,174
2019-03-03T13:47:01.331Z,174
2019-03-03T13:48:02.691Z,168
2019-03-03T13:49:04.052Z,174
2019-03-03T13:50:05.414Z,174
2019-03-03T13:51:06.779Z,174
2019-03-03T13:52:08.145Z,174
2019-03-03T13:53:09.511Z,191
2019-03-03T13:54:10.870Z,202
2019-03-03T13:55:12.239Z,185
2019-03-03T13:56:13.619Z,157
2019-03-03T13:57:14.980Z,151
2019-03-03T13:58:16.341Z,140
2019-03-03T13:59:17.707Z,129
2019-03-03T14:00:19.079Z,129
2019-03-03T14:01:59.950Z,129
2019-03-03T14:03:01.337Z,135
2019-03-03T14:04:33.914Z,140
2019-03-03T14:05:35.272Z,135
2019-03-03T14:07:07.836Z,123
2019-03-03T14:08:09.191Z,123
2019-03-03T14:09:41.761Z,129
2019-03-03T14:10:43.127Z,146
2019-03-03T14:11:44.493Z,151
2019-03-03T14:12:45.866Z,140
2019-03-03T14:13:47.229Z,118
2019-03-03T14:14:48.590Z,112
2019-03-03T14:15:49.947Z,118
2019-03-03T14:16:51.316Z,135
2019-03-03T14:17:52.694Z,151
2019-03-03T14:18:54.040Z,151
2019-03-03T14:19:55.397Z,157
2019-03-03T14:20:56.760Z,140
2019-03-03T14:21:58.112Z,129
2019-03-03T14:22:59.478Z,135
2019-03-03T14:24:00.841Z,129
2019-03-03T14:25:02.204Z,118
2019-03-03T14:26:03.580Z,118
2019-03-03T14:27:10.436Z,123
2019-03-03T14:28:06.261Z,123
2019-03-03T14:29:07.625Z,123
2019-03-03T14:30:08.987Z,112
2019-03-03T14:31:10.361Z,123
2019-03-03T14:32:11.717Z,118
2019-03-03T14:33:13.082Z,112
2019-03-03T14:34:14.449Z,106
2019-03-03T14:35:15.805Z,106
2019-03-03T14:36:17.163Z,106
2019-03-03T14:37:18.530Z,101
2019-03-03T14:38:19.895Z,101